Terminal Aerodrome Forecast
Issued by NWS Charleston, WV

Current Version | Previous Version | Text Only | Print | Product List | Glossary Off
Versions: 1 2 3 4 5 6 7 8 9 10 11 12 13 14 15 16 17 18 19 20 21 22 23

000
FTUS41 KRLX 272300
TAFHTS
TAF
KHTS 272325Z 2800/2824 VRB03KT P6SM OVC080
     FM280600 23004KT 6SM -RA OVC025
     FM281000 VRB03KT 5SM -RA BR OVC010
     FM281200 VRB03KT 2SM -RA BR OVC008
     FM281800 VRB03KT 3SM -RA BR OVC015=

USA.gov is the U.S. government's official web portal to all federal, state and local government web resources and services.